createdAt,value
2019-05-30T00:00:34.591Z,11.25
2019-05-30T00:01:34.600Z,11.33
2019-05-30T00:02:34.559Z,11.32
2019-05-30T00:03:34.556Z,11.32
2019-05-30T00:04:34.517Z,11.18
2019-05-30T00:05:34.497Z,11.18
2019-05-30T00:06:34.489Z,11.19
2019-05-30T00:07:34.459Z,11.19
2019-05-30T00:08:34.438Z,11.11
2019-05-30T00:09:34.423Z,11.07
2019-05-30T00:10:34.400Z,11.06
2019-05-30T00:11:34.395Z,11.09
2019-05-30T00:12:34.360Z,11.09
2019-05-30T00:13:34.339Z,11.04
2019-05-30T00:14:34.353Z,11.00
2019-05-30T00:15:34.310Z,11.00
2019-05-30T00:16:34.317Z,10.89
2019-05-30T00:17:34.263Z,10.88
2019-05-30T00:18:34.245Z,11.00
2019-05-30T00:19:34.272Z,11.00
2019-05-30T00:20:34.207Z,11.02
2019-05-30T00:21:34.184Z,11.02
2019-05-30T00:22:34.182Z,11.03
2019-05-30T00:23:34.150Z,11.07
2019-05-30T00:24:34.126Z,11.04
2019-05-30T00:25:34.112Z,11.04
2019-05-30T00:26:34.089Z,11.00
2019-05-30T00:27:34.108Z,11.06
2019-05-30T00:28:34.049Z,11.10
2019-05-30T00:29:34.032Z,11.04
2019-05-30T00:30:34.014Z,11.14
2019-05-30T00:31:33.992Z,11.11
2019-05-30T00:32:33.972Z,11.11
2019-05-30T00:33:33.969Z,11.09
2019-05-30T00:34:33.944Z,11.10
2019-05-30T00:35:33.917Z,11.06
2019-05-30T00:36:33.894Z,11.03
2019-05-30T00:37:33.877Z,11.02
2019-05-30T00:38:33.878Z,11.10
2019-05-30T00:39:33.844Z,11.07
2019-05-30T00:40:33.819Z,11.14
2019-05-30T00:41:33.797Z,11.14
2019-05-30T00:42:33.780Z,11.09
2019-05-30T00:43:33.799Z,11.11
2019-05-30T00:44:33.743Z,11.17
2019-05-30T00:45:33.724Z,11.21
2019-05-30T00:46:33.703Z,11.17
2019-05-30T00:47:33.682Z,11.14
2019-05-30T00:48:33.664Z,11.18
2019-05-30T00:49:33.664Z,11.15
2019-05-30T00:50:33.625Z,11.11
2019-05-30T00:51:33.605Z,11.15
2019-05-30T00:52:33.586Z,11.17
2019-05-30T00:53:33.565Z,11.14
2019-05-30T00:54:33.548Z,11.07
2019-05-30T00:55:33.543Z,11.07
2019-05-30T00:56:33.509Z,10.99
2019-05-30T00:57:33.489Z,11.02
2019-05-30T00:58:33.471Z,11.06
2019-05-30T00:59:33.451Z,11.06
2019-05-30T01:00:43.407Z,11.04
2019-05-30T01:01:33.414Z,11.10
2019-05-30T01:02:33.396Z,11.03
2019-05-30T01:03:33.375Z,11.06
2019-05-30T01:04:33.364Z,11.03
2019-05-30T01:05:33.336Z,11.07
2019-05-30T01:06:33.337Z,11.03
2019-05-30T01:07:33.299Z,11.15
2019-05-30T01:08:33.278Z,11.18
2019-05-30T01:09:33.262Z,11.11
2019-05-30T01:10:33.249Z,11.14
2019-05-30T01:11:33.239Z,11.28
2019-05-30T01:12:33.201Z,11.22
2019-05-30T01:13:33.201Z,11.29
2019-05-30T01:14:33.161Z,11.33
2019-05-30T01:15:33.142Z,11.33
2019-05-30T01:16:33.123Z,11.19
2019-05-30T01:17:33.119Z,11.17
2019-05-30T01:18:33.084Z,11.25
2019-05-30T01:19:33.067Z,11.15
2019-05-30T01:20:33.048Z,11.15
2019-05-30T01:21:33.027Z,11.19
2019-05-30T01:22:33.027Z,11.18
2019-05-30T01:23:32.990Z,11.19
2019-05-30T01:24:32.968Z,11.27
2019-05-30T01:25:32.951Z,11.18
2019-05-30T01:26:32.930Z,11.17
2019-05-30T01:27:32.911Z,11.18
2019-05-30T01:28:32.904Z,11.14
2019-05-30T01:29:32.874Z,11.10
2019-05-30T01:30:32.854Z,11.10
2019-05-30T01:31:32.833Z,11.11
2019-05-30T01:32:32.815Z,11.11
2019-05-30T01:33:32.795Z,11.18
2019-05-30T01:34:32.792Z,11.17
2019-05-30T01:35:32.758Z,11.17
2019-05-30T01:36:32.743Z,11.21
2019-05-30T01:37:32.716Z,11.27
2019-05-30T01:38:32.698Z,11.21
2019-05-30T01:39:32.694Z,11.22
2019-05-30T01:40:32.682Z,11.27
2019-05-30T01:41:32.642Z,11.19
2019-05-30T01:42:32.622Z,11.24
2019-05-30T01:43:32.601Z,11.25
2019-05-30T01:44:32.607Z,11.18
2019-05-30T01:45:32.563Z,11.09
2019-05-30T01:46:32.542Z,11.10
2019-05-30T01:47:32.544Z,11.09
2019-05-30T01:48:32.504Z,11.02
2019-05-30T01:49:32.485Z,11.14
2019-05-30T01:50:32.484Z,11.09
2019-05-30T01:51:32.447Z,11.00
2019-05-30T01:52:32.428Z,11.03
2019-05-30T01:53:32.409Z,10.96
2019-05-30T01:54:32.417Z,10.94
2019-05-30T01:55:32.367Z,10.91
2019-05-30T01:56:32.363Z,10.85
2019-05-30T01:57:32.329Z,10.92
2019-05-30T01:58:32.310Z,10.96
2019-05-30T01:59:32.292Z,10.88
2019-05-30T02:00:32.274Z,10.82
2019-05-30T02:01:32.266Z,10.82
2019-05-30T02:02:32.235Z,10.89
2019-05-30T02:03:32.228Z,10.84
2019-05-30T02:04:32.195Z,10.85
2019-05-30T02:05:32.174Z,11.00
2019-05-30T02:06:32.178Z,11.07
2019-05-30T02:07:32.155Z,11.09
2019-05-30T02:08:32.172Z,11.11
2019-05-30T02:09:32.097Z,11.15
2019-05-30T02:10:32.078Z,11.14
2019-05-30T02:11:32.096Z,11.14
2019-05-30T02:12:32.038Z,11.19
2019-05-30T02:13:32.022Z,11.14
2019-05-30T02:14:32.027Z,11.15
2019-05-30T02:15:31.982Z,11.06
2019-05-30T02:16:31.963Z,11.15
2019-05-30T02:17:31.964Z,11.11
2019-05-30T02:18:31.922Z,11.17
2019-05-30T02:19:31.902Z,11.14
2019-05-30T02:20:31.883Z,11.15
2019-05-30T02:21:31.863Z,11.15
2019-05-30T02:22:31.844Z,11.19
2019-05-30T02:23:31.843Z,11.19
2019-05-30T02:24:31.805Z,11.27
2019-05-30T02:25:31.785Z,11.29
2019-05-30T02:26:31.768Z,11.18
2019-05-30T02:27:31.755Z,11.19
2019-05-30T02:28:31.763Z,11.21
2019-05-30T02:29:31.712Z,11.29
2019-05-30T02:30:31.700Z,11.37
2019-05-30T02:31:39.141Z,11.29
2019-05-30T02:32:31.653Z,11.40
2019-05-30T02:33:31.638Z,11.44
2019-05-30T02:34:31.652Z,11.44
2019-05-30T02:35:31.595Z,11.57
2019-05-30T02:36:31.574Z,11.54
2019-05-30T02:37:31.555Z,11.58
2019-05-30T02:38:31.542Z,11.55
2019-05-30T02:39:31.537Z,11.62
2019-05-30T02:40:31.496Z,11.62
2019-05-30T02:41:31.477Z,11.70
2019-05-30T02:42:31.460Z,11.60
2019-05-30T02:43:31.448Z,11.64
2019-05-30T02:44:31.419Z,11.67
2019-05-30T02:45:31.414Z,11.64
2019-05-30T02:46:31.381Z,11.69
2019-05-30T02:47:31.361Z,11.65
2019-05-30T02:48:31.344Z,11.73
2019-05-30T02:49:31.323Z,11.70
2019-05-30T02:50:31.322Z,11.75
2019-05-30T02:51:31.287Z,11.78
2019-05-30T02:52:31.266Z,11.76
2019-05-30T02:53:31.244Z,11.75
2019-05-30T02:54:31.227Z,11.79
2019-05-30T02:55:31.217Z,11.80
2019-05-30T02:56:31.202Z,11.73
2019-05-30T02:57:31.172Z,11.91
2019-05-30T02:58:31.149Z,11.82
2019-05-30T02:59:31.141Z,11.78
2019-05-30T03:00:31.113Z,11.69
2019-05-30T03:01:31.108Z,11.62
2019-05-30T03:02:31.091Z,11.52
2019-05-30T03:03:31.055Z,11.58
2019-05-30T03:04:31.035Z,11.60
2019-05-30T03:05:31.023Z,11.54
2019-05-30T03:06:31.013Z,11.60
2019-05-30T03:07:30.978Z,11.62
2019-05-30T03:08:30.957Z,11.55
2019-05-30T03:09:30.937Z,11.64
2019-05-30T03:10:30.920Z,11.70
2019-05-30T03:11:30.921Z,11.78
2019-05-30T03:12:30.880Z,11.80
2019-05-30T03:13:30.862Z,11.82
2019-05-30T03:14:30.842Z,11.95
2019-05-30T05:45:34.576Z,14.83
2019-05-30T05:46:34.536Z,14.88
2019-05-30T05:47:34.517Z,14.95
2019-05-30T05:48:34.494Z,14.89
2019-05-30T05:49:34.476Z,14.99
2019-05-30T05:50:34.453Z,15.02
2019-05-30T05:51:34.450Z,14.98
2019-05-30T05:52:34.416Z,14.98
2019-05-30T05:53:34.397Z,14.95
2019-05-30T05:54:34.376Z,15.02
2019-05-30T05:55:34.359Z,14.94
2019-05-30T05:56:34.356Z,15.01
2019-05-30T05:57:34.326Z,15.01
2019-05-30T05:58:34.303Z,14.95
2019-05-30T05:59:34.290Z,14.94
2019-05-30T06:00:34.270Z,15.02
2019-05-30T06:01:34.253Z,15.01
2019-05-30T06:02:34.249Z,15.01
2019-05-30T06:03:34.214Z,15.11
2019-05-30T06:04:34.197Z,15.11
2019-05-30T06:05:34.177Z,15.16
2019-05-30T06:06:34.163Z,15.17
2019-05-30T06:07:34.143Z,15.14
2019-05-30T06:08:34.139Z,15.13
2019-05-30T06:09:34.111Z,15.20
2019-05-30T06:10:34.090Z,15.27
2019-05-30T06:11:34.071Z,15.29
2019-05-30T06:38:29.504Z,15.62
2019-05-30T06:39:29.691Z,15.71
2019-05-30T06:40:30.827Z,15.68
2019-05-30T06:41:29.764Z,15.67
2019-05-30T06:42:30.199Z,15.69
2019-05-30T06:43:28.641Z,15.60
2019-05-30T06:44:28.621Z,15.69
2019-05-30T06:45:28.603Z,15.69
2019-05-30T06:46:28.582Z,15.75
2019-05-30T06:47:28.566Z,15.74
2019-05-30T06:48:28.819Z,15.78
2019-05-30T06:49:29.039Z,15.90
2019-05-30T06:50:29.164Z,16.00
2019-05-30T06:51:29.120Z,15.97
2019-05-30T06:52:29.171Z,16.09
2019-05-30T06:53:29.373Z,16.15
2019-05-30T06:54:29.530Z,16.25
2019-05-30T06:55:29.522Z,16.30
2019-05-30T06:56:29.483Z,16.39
2019-05-30T06:57:29.345Z,16.38
2019-05-30T06:58:41.535Z,16.45
2019-05-30T06:59:28.372Z,16.60
2019-05-30T07:00:28.344Z,16.75
2019-05-30T07:01:28.325Z,16.76
2019-05-30T07:02:28.449Z,16.76
2019-05-30T07:03:28.529Z,16.91
2019-05-30T07:04:31.034Z,16.97
2019-05-30T07:05:29.903Z,17.08
2019-05-30T07:19:55.094Z,17.08
2019-05-30T07:20:55.081Z,17.15
2019-05-30T07:21:55.043Z,17.16
2019-05-30T07:22:55.026Z,17.15
2019-05-30T07:23:55.008Z,17.12
2019-05-30T07:24:54.989Z,17.18
2019-05-30T07:25:54.976Z,17.30
2019-05-30T07:26:54.968Z,17.26
2019-05-30T07:27:54.937Z,17.16
2019-05-30T07:28:54.920Z,17.23
2019-05-30T07:29:54.906Z,17.26
2019-05-30T07:30:54.889Z,17.28
2019-05-30T07:31:54.885Z,17.36
2019-05-30T07:32:54.857Z,17.33
2019-05-30T07:33:54.838Z,17.40
2019-05-30T07:35:06.100Z,17.44
2019-05-30T07:35:54.805Z,17.44
2019-05-30T07:36:54.807Z,17.52
2019-05-30T07:37:54.799Z,17.59
2019-05-30T07:38:54.766Z,17.63
2019-05-30T07:39:54.741Z,17.75
2019-05-30T07:40:54.730Z,17.95
2019-05-30T07:42:05.838Z,17.82
2019-05-30T07:54:13.569Z,17.46
2019-05-30T07:55:13.531Z,17.51
2019-05-30T07:56:13.515Z,17.58
2019-05-30T07:57:13.497Z,17.52
2019-05-30T07:58:13.488Z,17.62
2019-05-30T07:59:13.463Z,17.58
2019-05-30T08:00:13.468Z,17.68
2019-05-30T08:01:13.436Z,17.59
2019-05-30T08:02:13.413Z,17.74
2019-05-30T08:03:13.397Z,17.77
2019-05-30T08:04:13.381Z,17.74
2019-05-30T08:05:23.657Z,17.92
2019-05-30T08:30:25.792Z,17.79
2019-05-30T08:31:25.768Z,17.79
2019-05-30T08:32:25.742Z,17.81
2019-05-30T08:33:25.740Z,17.86
2019-05-30T08:34:25.744Z,17.84
2019-05-30T08:35:39.809Z,17.97
2019-05-30T08:36:25.669Z,17.97
2019-05-30T08:37:25.650Z,17.95
2019-05-30T08:38:25.638Z,17.95
2019-05-30T08:39:25.620Z,17.97
2019-05-30T08:40:25.612Z,17.97
2019-05-30T08:41:25.593Z,17.96
2019-05-30T08:42:27.861Z,18.20
2019-05-30T08:43:25.554Z,18.15
2019-05-30T08:44:25.556Z,18.10
2019-05-30T08:55:58.540Z,17.96
2019-05-30T08:56:58.501Z,17.96
2019-05-30T08:57:58.488Z,17.96
2019-05-30T08:58:58.470Z,18.02
2019-05-30T08:59:58.471Z,18.10
2019-05-30T09:00:58.440Z,18.23
2019-05-30T09:01:58.423Z,18.30
2019-05-30T09:02:58.402Z,18.36
2019-05-30T09:03:58.394Z,18.36
2019-05-30T09:04:58.368Z,18.25
2019-05-30T09:06:03.773Z,18.18
2019-05-30T09:06:58.338Z,18.30
2019-05-30T09:07:58.323Z,18.21
2019-05-30T09:08:58.303Z,18.21
2019-05-30T09:09:58.290Z,18.05
2019-05-30T09:10:58.292Z,18.07
2019-05-30T09:11:58.260Z,17.90
2019-05-30T09:12:58.242Z,17.96
2019-05-30T09:13:58.228Z,18.10
2019-05-30T09:14:58.211Z,18.20
2019-05-30T09:15:58.199Z,18.25
2019-05-30T09:16:58.196Z,18.26
2019-05-30T09:17:58.168Z,18.29
2019-05-30T09:18:58.151Z,18.44
2019-05-30T09:19:58.137Z,18.41
2019-05-30T09:20:58.120Z,18.41
2019-05-30T09:21:58.120Z,18.52
2019-05-30T09:22:58.103Z,18.66
2019-05-30T09:24:01.222Z,18.80
2019-05-30T09:24:58.062Z,18.99
2019-05-30T09:25:58.044Z,19.06
2019-05-30T09:26:58.069Z,19.23
2019-05-30T09:27:58.017Z,19.51
2019-05-30T09:28:58.001Z,19.43
2019-05-30T09:29:57.988Z,19.84
2019-05-30T09:30:57.972Z,19.83
2019-05-30T09:31:57.960Z,19.73
2019-05-30T09:32:57.962Z,19.47
2019-05-30T09:33:57.929Z,19.25
2019-05-30T09:34:57.914Z,19.36
2019-05-30T09:36:12.115Z,19.44
2019-05-30T09:36:57.884Z,19.63
2019-05-30T09:37:57.874Z,19.65
2019-05-30T09:38:57.876Z,19.68
2019-05-30T09:39:57.844Z,19.78
2019-05-30T09:40:57.830Z,19.73
2019-05-30T09:41:57.816Z,19.58
2019-05-30T09:42:57.802Z,19.55
2019-05-30T09:43:57.807Z,19.74
2019-05-30T09:44:57.772Z,19.61
2019-05-30T09:45:57.761Z,19.83
2019-05-30T09:46:57.744Z,19.80
2019-05-30T09:47:57.729Z,19.65
2019-05-30T09:48:57.752Z,19.74
2019-05-30T09:49:57.705Z,19.94
2019-05-30T09:50:57.690Z,19.78
2019-05-30T09:51:57.674Z,19.81
2019-05-30T09:52:57.664Z,19.83
2019-05-30T09:53:57.647Z,20.10
2019-05-30T09:54:57.657Z,20.20
2019-05-30T09:55:57.635Z,20.18
2019-05-30T09:56:57.643Z,20.33
2019-05-30T09:57:57.635Z,20.47
2019-05-30T09:58:57.580Z,20.42
2019-05-30T09:59:57.572Z,20.42
2019-05-30T10:00:57.564Z,20.43
2019-05-30T10:01:57.537Z,20.43
2019-05-30T10:02:57.523Z,20.28
2019-05-30T10:03:57.513Z,20.32
2019-05-30T10:04:57.498Z,20.33
2019-05-30T10:05:57.532Z,20.35
2019-05-30T10:06:57.474Z,20.50
2019-05-30T10:07:57.458Z,20.50
2019-05-30T10:08:57.443Z,20.50
2019-05-30T10:09:57.431Z,20.48
2019-05-30T10:10:57.417Z,20.43
2019-05-30T10:11:57.416Z,20.48
2019-05-30T10:12:57.389Z,20.43
2019-05-30T10:13:57.377Z,20.33
2019-05-30T10:14:57.362Z,20.41
2019-05-30T10:15:57.355Z,20.47
2019-05-30T10:16:58.135Z,20.42
2019-05-30T10:17:57.322Z,20.64
2019-05-30T10:18:57.313Z,20.76
2019-05-30T10:19:57.351Z,20.72
2019-05-30T10:20:57.284Z,20.79
2019-05-30T10:21:57.356Z,20.82
2019-05-30T10:22:57.379Z,20.43
2019-05-30T10:23:57.633Z,20.58
2019-05-30T10:24:57.269Z,20.74
2019-05-30T10:25:57.516Z,20.50
2019-05-30T10:26:57.422Z,20.58
2019-05-30T10:27:57.803Z,20.58
2019-05-30T10:28:57.424Z,20.42
2019-05-30T10:29:57.563Z,20.47
2019-05-30T10:30:59.373Z,20.50
2019-05-30T10:31:57.140Z,20.50
2019-05-30T10:32:57.128Z,20.70
2019-05-30T10:33:57.144Z,20.66
2019-05-30T10:34:57.101Z,20.67
2019-05-30T10:35:57.091Z,20.48
2019-05-30T10:36:57.072Z,20.57
2019-05-30T10:37:57.059Z,20.62
2019-05-30T10:38:57.063Z,20.61
2019-05-30T10:39:57.867Z,20.47
2019-05-30T10:40:57.021Z,20.50
2019-05-30T10:41:57.255Z,20.32
2019-05-30T10:42:56.999Z,20.35
2019-05-30T10:44:05.732Z,20.33
2019-05-30T10:44:56.969Z,20.28
2019-05-30T10:45:57.520Z,20.35
2019-05-30T10:46:56.940Z,20.18
2019-05-30T10:47:57.514Z,20.32
2019-05-30T10:48:56.956Z,20.52
2019-05-30T10:49:57.723Z,20.67
2019-05-30T10:50:56.887Z,20.88
2019-05-30T10:51:59.223Z,20.72
2019-05-30T10:52:56.859Z,20.80
2019-05-30T10:53:56.845Z,21.03
2019-05-30T10:55:03.879Z,21.19
2019-05-30T10:55:56.818Z,21.24
2019-05-30T10:56:56.834Z,21.28
2019-05-30T10:57:59.405Z,21.21
2019-05-30T10:58:57.268Z,20.98
2019-05-30T10:59:56.841Z,20.69
2019-05-30T11:00:57.790Z,20.41
2019-05-30T11:01:56.757Z,20.39
2019-05-30T11:02:57.153Z,20.26
2019-05-30T11:03:57.021Z,20.21
2019-05-30T11:04:57.596Z,20.21
2019-05-30T11:05:57.223Z,20.31
2019-05-30T11:07:10.117Z,20.39
2019-05-30T11:08:05.301Z,20.32
2019-05-30T11:08:56.929Z,20.41
2019-05-30T11:09:57.345Z,20.43
2019-05-30T11:10:56.866Z,20.43
2019-05-30T11:11:57.092Z,20.38
2019-05-30T11:13:05.296Z,20.31
2019-05-30T11:13:57.284Z,20.33
2019-05-30T11:14:57.837Z,20.21
2019-05-30T11:15:57.417Z,20.23
2019-05-30T11:16:57.692Z,20.24
2019-05-30T11:17:57.686Z,20.26
2019-05-30T11:18:57.836Z,20.35
2019-05-30T11:19:56.496Z,20.43
2019-05-30T11:20:56.565Z,20.47
2019-05-30T11:21:56.497Z,20.42
2019-05-30T11:22:56.524Z,20.50
2019-05-30T11:23:56.742Z,20.42
2019-05-30T11:46:18.101Z,19.96
2019-05-30T11:47:18.067Z,19.96
2019-05-30T11:48:18.055Z,19.96
2019-05-30T11:49:18.071Z,19.88
2019-05-30T11:50:18.023Z,19.81
2019-05-30T11:51:18.011Z,19.94
2019-05-30T11:52:17.988Z,19.88
2019-05-30T11:53:17.975Z,20.06
2019-05-30T11:54:17.961Z,20.10
2019-05-30T11:55:17.961Z,20.21
2019-05-30T11:56:17.931Z,20.18
2019-05-30T11:57:17.911Z,20.14
2019-05-30T11:58:19.664Z,19.99
2019-05-30T11:59:17.882Z,19.88
2019-05-30T12:00:17.890Z,19.99
2019-05-30T12:01:17.854Z,19.98
2019-05-30T12:02:17.841Z,19.74
2019-05-30T12:03:17.828Z,19.73
2019-05-30T12:04:17.810Z,19.68
2019-05-30T12:05:17.797Z,19.73
2019-05-30T12:06:17.793Z,19.98
2019-05-30T12:07:17.768Z,19.95
2019-05-30T12:08:17.755Z,19.84
2019-05-30T12:09:17.738Z,19.92
2019-05-30T12:10:17.725Z,20.06
2019-05-30T12:11:17.747Z,20.28
2019-05-30T12:12:17.698Z,20.39
2019-05-30T12:13:17.681Z,20.48
2019-05-30T12:14:21.260Z,20.52
2019-05-30T12:15:17.654Z,20.77
2019-05-30T12:16:17.639Z,20.91
2019-05-30T12:17:17.641Z,20.82
2019-05-30T12:18:17.613Z,20.89
2019-05-30T12:19:17.600Z,21.19
2019-05-30T12:20:17.583Z,21.12
2019-05-30T12:21:17.568Z,21.14
2019-05-30T12:22:17.572Z,21.38
2019-05-30T12:23:17.543Z,21.09
2019-05-30T12:24:17.551Z,20.91
2019-05-30T12:25:17.517Z,21.10
2019-05-30T12:26:17.505Z,21.24
2019-05-30T12:27:17.492Z,21.01
2019-05-30T12:28:17.496Z,20.89
2019-05-30T12:29:17.466Z,20.43
2019-05-30T12:30:17.449Z,20.52
2019-05-30T12:31:17.435Z,20.59
2019-05-30T12:32:17.421Z,20.76
2019-05-30T12:33:17.436Z,20.72
2019-05-30T12:34:17.398Z,20.76
2019-05-30T12:35:17.383Z,20.82
2019-05-30T12:36:17.380Z,20.92
2019-05-30T12:37:17.353Z,21.22
2019-05-30T12:38:17.350Z,21.24
2019-05-30T12:39:17.343Z,21.19
2019-05-30T12:40:17.315Z,21.38
2019-05-30T12:41:17.303Z,21.53
2019-05-30T12:42:17.290Z,21.53
2019-05-30T12:43:17.277Z,21.59
2019-05-30T12:44:17.281Z,21.35
2019-05-30T12:45:17.253Z,21.27
2019-05-30T12:46:17.235Z,21.29
2019-05-30T12:47:17.229Z,21.38
2019-05-30T12:48:17.211Z,21.24
2019-05-30T12:49:17.258Z,21.49
2019-05-30T12:50:17.185Z,21.54
2019-05-30T12:51:17.170Z,21.62
2019-05-30T12:52:17.159Z,21.56
2019-05-30T12:53:17.148Z,21.27
2019-05-30T12:54:17.133Z,21.37
2019-05-30T12:55:17.146Z,21.37
2019-05-30T12:56:17.107Z,21.37
2019-05-30T12:57:17.095Z,21.43
2019-05-30T12:58:17.087Z,21.40
2019-05-30T12:59:17.068Z,21.42
2019-05-30T13:00:19.071Z,21.38
2019-05-30T13:01:17.043Z,21.50
2019-05-30T13:02:17.028Z,21.50
2019-05-30T13:03:17.035Z,21.61
2019-05-30T13:04:17.004Z,21.56
2019-05-30T13:05:17.003Z,21.42
2019-05-30T13:06:16.982Z,21.62
2019-05-30T13:07:16.966Z,21.61
2019-05-30T13:08:21.526Z,21.50
2019-05-30T13:09:16.939Z,21.43
2019-05-30T13:10:16.947Z,21.42
2019-05-30T13:11:16.915Z,21.29
2019-05-30T13:12:16.903Z,21.38
2019-05-30T13:13:16.889Z,21.34
2019-05-30T13:14:16.884Z,21.28
2019-05-30T13:15:16.863Z,21.27
2019-05-30T13:16:16.890Z,21.28
2019-05-30T13:17:16.836Z,21.22
2019-05-30T13:18:16.827Z,21.27
2019-05-30T13:19:16.818Z,21.40
2019-05-30T13:20:16.803Z,21.43
2019-05-30T13:21:16.786Z,21.54
2019-05-30T13:22:16.788Z,21.61
2019-05-30T13:23:16.759Z,21.61
2019-05-30T13:24:16.748Z,21.46
2019-05-30T13:25:16.736Z,21.42
2019-05-30T13:26:16.723Z,21.38
2019-05-30T13:27:16.727Z,21.40
2019-05-30T13:28:16.700Z,21.38
2019-05-30T13:29:16.687Z,21.40
2019-05-30T13:30:16.669Z,21.27
2019-05-30T13:31:16.684Z,21.09
2019-05-30T13:32:16.681Z,21.17
2019-05-30T13:33:16.643Z,21.17
2019-05-30T13:34:16.620Z,21.28
2019-05-30T14:22:26.278Z,19.99
2019-05-30T14:23:26.247Z,20.21
2019-05-30T14:24:26.228Z,20.31
2019-05-30T14:25:26.210Z,20.33
2019-05-30T14:26:26.197Z,20.48
2019-05-30T14:27:26.197Z,20.57
2019-05-30T14:28:26.171Z,20.47
2019-05-30T14:29:28.037Z,20.50
2019-05-30T14:30:26.136Z,20.54
2019-05-30T14:31:26.116Z,20.79
2019-05-30T14:32:26.101Z,20.82
2019-05-30T14:33:26.102Z,20.92
2019-05-30T14:34:26.074Z,20.97
2019-05-30T14:35:26.057Z,20.89
2019-05-30T14:36:26.043Z,20.97
2019-05-30T14:37:26.029Z,20.99
2019-05-30T14:38:26.034Z,21.07
2019-05-30T14:39:26.001Z,21.10
2019-05-30T14:40:25.991Z,21.09
2019-05-30T14:41:25.975Z,20.97
2019-05-30T14:42:25.957Z,20.76
2019-05-30T14:43:25.943Z,20.74
2019-05-30T14:44:25.994Z,20.64
2019-05-30T14:45:27.838Z,20.55
2019-05-30T14:46:25.899Z,20.57
2019-05-30T15:08:53.169Z,19.50
2019-05-30T15:09:53.125Z,19.55
2019-05-30T15:10:53.119Z,19.59
2019-05-30T15:11:53.111Z,19.71
2019-05-30T15:12:53.076Z,19.87
2019-05-30T15:13:53.060Z,20.03
2019-05-30T15:14:53.044Z,20.03
2019-05-30T15:15:53.029Z,20.21
2019-05-30T15:16:53.027Z,20.21
2019-05-30T15:17:53.006Z,20.28
2019-05-30T15:18:52.991Z,20.17
2019-05-30T15:19:52.987Z,20.18
2019-05-30T15:20:52.952Z,20.01
2019-05-30T15:21:52.957Z,19.99
2019-05-30T15:22:52.921Z,19.88
2019-05-30T15:23:52.931Z,19.83
2019-05-30T15:24:52.901Z,19.99
2019-05-30T15:25:52.880Z,20.08
2019-05-30T15:26:52.865Z,20.08
2019-05-30T15:27:52.875Z,20.29
2019-05-30T15:28:52.834Z,20.31
2019-05-30T15:29:52.822Z,20.36
2019-05-30T15:30:52.812Z,20.24
2019-05-30T15:41:49.493Z,20.05
2019-05-30T15:42:52.991Z,20.16
2019-05-30T15:43:49.461Z,20.28
2019-05-30T15:44:49.435Z,20.32
2019-05-30T15:45:49.414Z,20.36
2019-05-30T15:46:49.399Z,20.41
2019-05-30T15:47:49.387Z,20.43
2019-05-30T15:48:49.370Z,20.47
2019-05-30T15:49:52.159Z,20.55
2019-05-30T15:50:49.339Z,20.89
2019-05-30T15:51:49.336Z,21.07
2019-05-30T15:52:49.317Z,21.22
2019-05-30T15:53:49.296Z,21.24
2019-05-30T15:54:49.320Z,21.52
2019-05-30T15:55:49.268Z,21.65
2019-05-30T15:56:49.259Z,21.44
2019-05-30T15:57:49.241Z,21.42
2019-05-30T15:58:49.227Z,21.24
2019-05-30T15:59:49.216Z,21.24
2019-05-30T16:00:49.215Z,21.44
2019-05-30T16:01:49.187Z,21.54
2019-05-30T16:02:49.173Z,21.59
2019-05-30T16:03:49.160Z,21.71
2019-05-30T16:04:49.149Z,21.84
2019-05-30T16:05:49.148Z,22.45
2019-05-30T16:06:49.119Z,22.55
2019-05-30T16:07:49.171Z,22.43
2019-05-30T16:08:49.103Z,22.31
2019-05-30T16:09:49.085Z,22.35
2019-05-30T16:10:49.094Z,22.51
2019-05-30T16:11:49.056Z,22.46
2019-05-30T16:12:49.047Z,22.60
2019-05-30T16:13:49.033Z,22.42
2019-05-30T16:14:49.022Z,22.46
2019-05-30T16:15:49.010Z,22.46
2019-05-30T16:16:49.010Z,22.54
2019-05-30T16:17:49.013Z,22.24
2019-05-30T16:18:48.973Z,22.14
2019-05-30T16:19:48.965Z,22.25
2019-05-30T16:20:48.948Z,22.37
2019-05-30T16:21:48.950Z,22.35
2019-05-30T16:22:48.963Z,21.91
2019-05-30T16:23:48.935Z,21.68
2019-05-30T16:24:48.901Z,21.71
2019-05-30T16:25:48.893Z,21.68
2019-05-30T16:26:48.893Z,21.67
2019-05-30T16:27:48.865Z,21.69
2019-05-30T16:28:48.851Z,21.74
2019-05-30T16:29:48.843Z,21.58
2019-05-30T16:30:48.827Z,21.69
2019-05-30T16:31:48.815Z,21.71
2019-05-30T16:32:48.818Z,21.99
2019-05-30T16:33:48.791Z,21.83
2019-05-30T16:34:48.778Z,21.96
2019-05-30T16:35:48.767Z,22.00
2019-05-30T16:36:48.755Z,22.24
2019-05-30T16:37:48.756Z,22.20
2019-05-30T16:38:48.731Z,21.91
2019-05-30T16:40:04.556Z,21.90
2019-05-30T16:40:48.708Z,21.82
2019-05-30T16:41:48.703Z,21.96
2019-05-30T16:42:48.704Z,21.68
2019-05-30T16:43:48.671Z,21.56
2019-05-30T16:44:48.658Z,21.40
2019-05-30T16:45:48.653Z,21.42
2019-05-30T16:46:48.645Z,21.40
2019-05-30T16:47:49.392Z,21.58
2019-05-30T16:48:48.629Z,21.69
2019-05-30T16:49:48.598Z,21.68
2019-05-30T16:50:48.595Z,21.67
2019-05-30T16:51:48.572Z,21.74
2019-05-30T16:52:48.561Z,21.74
2019-05-30T16:53:48.565Z,21.69
2019-05-30T16:54:48.538Z,21.84
2019-05-30T16:55:48.523Z,21.82
2019-05-30T16:56:48.512Z,21.94
2019-05-30T16:57:48.501Z,21.96
2019-05-30T16:58:48.485Z,21.99
2019-05-30T16:59:48.487Z,21.94
2019-05-30T17:00:48.462Z,22.00
2019-05-30T17:01:57.338Z,21.83
2019-05-30T17:02:48.441Z,21.79
2019-05-30T17:03:48.477Z,21.92
2019-05-30T17:04:48.450Z,21.92
2019-05-30T17:05:48.407Z,22.07
2019-05-30T17:06:48.439Z,21.99
2019-05-30T17:07:48.811Z,22.06
2019-05-30T17:08:48.365Z,22.07
2019-05-30T17:09:48.363Z,22.12
2019-05-30T17:10:48.367Z,22.22
2019-05-30T17:11:48.334Z,22.02
2019-05-30T17:12:48.315Z,21.94
2019-05-30T17:13:48.301Z,21.83
2019-05-30T17:14:48.303Z,21.82
2019-05-30T17:15:48.279Z,21.71
2019-05-30T17:16:48.266Z,21.71
2019-05-30T17:17:48.252Z,21.88
2019-05-30T17:18:48.260Z,21.84
2019-05-30T17:19:48.318Z,21.74
2019-05-30T17:20:48.242Z,21.84
2019-05-30T17:21:48.246Z,21.75
2019-05-30T17:22:48.192Z,21.75
2019-05-30T17:23:48.281Z,21.80
2019-05-30T17:24:48.177Z,21.74
2019-05-30T17:25:48.167Z,21.72
2019-05-30T17:26:51.791Z,21.69
2019-05-30T17:27:48.138Z,21.69
